createdAt,value
2023-07-17T00:00:44.994Z,5.30
2023-07-17T00:03:13.173Z,5.53
2023-07-17T00:05:41.906Z,7.07
2023-07-17T00:08:11.078Z,8.73
2023-07-17T00:10:39.829Z,8.57
2023-07-17T00:13:07.423Z,7.93
2023-07-17T00:15:34.709Z,9.43
2023-07-17T00:18:01.946Z,9.38
2023-07-17T00:20:29.448Z,9.73
2023-07-17T00:22:56.737Z,7.57
2023-07-17T00:25:24.668Z,7.25
2023-07-17T00:27:52.642Z,6.38
2023-07-17T00:30:19.840Z,6.53
2023-07-17T00:32:47.112Z,6.22
2023-07-17T00:35:15.783Z,6.93
2023-07-17T00:37:43.533Z,6.40
2023-07-17T00:40:12.462Z,6.22
2023-07-17T00:42:40.920Z,6.25
2023-07-17T00:45:08.860Z,6.82
2023-07-17T00:47:36.530Z,5.55
2023-07-17T00:50:05.309Z,6.13
2023-07-17T00:52:34.089Z,5.50
2023-07-17T00:55:01.469Z,5.15
2023-07-17T00:57:28.643Z,5.53
2023-07-17T00:59:55.870Z,6.55
2023-07-17T01:02:23.647Z,6.70
2023-07-17T01:04:53.302Z,6.00
2023-07-17T01:07:20.460Z,6.13
2023-07-17T01:09:49.337Z,5.60
2023-07-17T01:12:16.648Z,6.15
2023-07-17T01:14:43.918Z,5.45
2023-07-17T01:17:12.254Z,5.28
2023-07-17T01:19:39.988Z,5.60
2023-07-17T01:22:12.304Z,5.47
2023-07-17T01:24:40.307Z,5.50
2023-07-17T01:27:10.648Z,5.70
2023-07-17T01:29:38.045Z,5.82
2023-07-17T01:32:06.334Z,7.35
2023-07-17T01:34:33.662Z,9.68
2023-07-17T01:37:01.350Z,9.15
2023-07-17T01:39:32.107Z,9.57
2023-07-17T01:41:59.260Z,10.57
2023-07-17T01:44:31.477Z,9.52
2023-07-17T01:46:59.784Z,11.50
2023-07-17T01:49:27.608Z,12.30
2023-07-17T01:51:54.757Z,10.82
2023-07-17T01:54:22.661Z,9.98
2023-07-17T01:56:50.029Z,10.73
2023-07-17T01:59:17.358Z,9.48
2023-07-17T02:01:44.803Z,11.57
2023-07-17T02:04:14.464Z,10.43
2023-07-17T02:06:41.757Z,11.55
2023-07-17T02:09:09.384Z,11.02
2023-07-17T02:11:37.863Z,11.23
2023-07-17T02:14:06.920Z,10.85
2023-07-17T02:16:34.095Z,11.85
2023-07-17T02:19:01.397Z,11.70
2023-07-17T02:21:28.963Z,12.35
2023-07-17T02:23:57.165Z,12.25
2023-07-17T02:26:24.622Z,12.00
2023-07-17T02:28:51.825Z,14.00
2023-07-17T02:31:19.471Z,12.05
2023-07-17T02:33:47.373Z,12.27
2023-07-17T02:36:14.678Z,12.60
2023-07-17T02:38:44.750Z,11.95
2023-07-17T02:41:15.402Z,11.95
2023-07-17T02:43:43.023Z,11.48
2023-07-17T02:46:10.553Z,11.20
2023-07-17T02:48:38.016Z,11.38
2023-07-17T02:51:05.230Z,12.60
2023-07-17T02:53:32.542Z,12.48
2023-07-17T02:56:00.001Z,12.00
2023-07-17T02:58:27.190Z,12.07
2023-07-17T03:00:54.710Z,12.32
2023-07-17T03:03:22.205Z,12.18
2023-07-17T03:05:50.216Z,13.57
2023-07-17T03:08:17.751Z,11.60
2023-07-17T03:10:46.480Z,13.55
2023-07-17T03:13:13.981Z,12.77
2023-07-17T03:15:42.168Z,12.98
2023-07-17T03:18:09.403Z,12.48
2023-07-17T03:20:37.356Z,14.85
2023-07-17T03:23:04.764Z,12.63
2023-07-17T03:25:32.450Z,14.25
2023-07-17T03:27:59.618Z,11.80
2023-07-17T03:30:26.903Z,11.32
2023-07-17T03:32:54.392Z,8.88
2023-07-17T03:35:21.607Z,8.00
2023-07-17T03:37:49.058Z,7.15
2023-07-17T03:40:16.716Z,7.38
2023-07-17T03:42:44.297Z,6.65
2023-07-17T03:45:11.980Z,6.13
2023-07-17T03:47:40.760Z,4.95
2023-07-17T03:50:09.300Z,6.10
2023-07-17T03:52:37.149Z,5.70
2023-07-17T03:55:06.070Z,5.55
2023-07-17T03:57:33.352Z,5.60
2023-07-17T04:00:00.783Z,4.55
2023-07-17T04:02:43.826Z,4.40
2023-07-17T04:05:19.773Z,4.43
2023-07-17T04:07:47.384Z,4.15
2023-07-17T04:10:15.596Z,4.05
2023-07-17T04:12:43.023Z,4.43
2023-07-17T04:15:11.217Z,4.65
2023-07-17T04:17:38.687Z,5.07
2023-07-17T04:20:10.456Z,5.13
2023-07-17T04:22:37.819Z,4.20
2023-07-17T04:25:06.276Z,5.07
2023-07-17T04:27:34.928Z,4.47
2023-07-17T04:30:02.663Z,6.80
2023-07-17T04:32:32.567Z,5.95
2023-07-17T04:34:59.949Z,5.60
2023-07-17T04:37:27.990Z,4.65
2023-07-17T04:39:56.353Z,5.50
2023-07-17T04:42:23.578Z,5.47
2023-07-17T04:44:50.912Z,4.07
2023-07-17T04:47:19.448Z,3.70
2023-07-17T04:49:47.964Z,3.65
2023-07-17T04:52:16.129Z,3.08
2023-07-17T04:54:45.346Z,3.78
2023-07-17T04:57:12.522Z,3.20
2023-07-17T04:59:40.365Z,2.70
2023-07-17T05:02:07.769Z,3.47
2023-07-17T05:04:35.714Z,3.20
2023-07-17T05:07:03.479Z,2.55
2023-07-17T05:09:31.069Z,3.30
2023-07-17T05:11:58.369Z,3.05
2023-07-17T05:14:26.124Z,3.20
2023-07-17T05:16:53.394Z,2.92
2023-07-17T05:19:22.887Z,2.90
2023-07-17T05:21:50.553Z,3.10
2023-07-17T05:24:18.006Z,3.60
2023-07-17T05:26:45.431Z,3.50
2023-07-17T05:29:12.638Z,3.15
2023-07-17T05:31:41.445Z,3.28
2023-07-17T05:34:08.658Z,3.13
2023-07-17T05:36:36.870Z,4.03
2023-07-17T05:39:06.254Z,3.80
2023-07-17T05:41:35.029Z,3.10
2023-07-17T05:44:02.357Z,3.05
2023-07-17T05:46:31.564Z,3.45
2023-07-17T05:48:58.978Z,3.88
2023-07-17T05:51:26.233Z,3.53
2023-07-17T05:53:54.158Z,4.35
2023-07-17T05:56:21.572Z,3.28
2023-07-17T05:58:49.762Z,3.75
2023-07-17T06:01:17.228Z,4.95
2023-07-17T06:03:46.641Z,4.07
2023-07-17T06:06:14.104Z,3.25
2023-07-17T06:08:42.378Z,3.92
2023-07-17T06:11:09.996Z,4.10
2023-07-17T06:13:37.350Z,4.07
2023-07-17T06:16:05.157Z,4.13
2023-07-17T06:18:32.683Z,4.07
2023-07-17T06:21:00.079Z,4.07
2023-07-17T06:23:27.882Z,4.32
2023-07-17T06:25:55.275Z,5.10
2023-07-17T06:28:22.573Z,4.50
2023-07-17T06:30:50.084Z,4.13
2023-07-17T06:33:17.440Z,3.83
2023-07-17T06:35:45.696Z,4.00
2023-07-17T06:38:12.948Z,3.80
2023-07-17T06:40:40.519Z,3.97
2023-07-17T06:43:08.038Z,3.55
2023-07-17T06:45:36.293Z,3.38
2023-07-17T06:48:04.177Z,4.00
2023-07-17T06:50:31.830Z,3.97
2023-07-17T06:52:59.002Z,4.20
2023-07-17T06:55:29.081Z,4.05
2023-07-17T06:57:56.275Z,3.55
2023-07-17T07:00:23.513Z,3.55
2023-07-17T07:02:51.031Z,3.35
2023-07-17T07:05:18.333Z,3.17
2023-07-17T07:07:45.874Z,4.15
2023-07-17T07:10:13.482Z,3.88
2023-07-17T07:12:41.842Z,3.80
2023-07-17T07:15:10.394Z,4.20
2023-07-17T07:17:37.887Z,3.70
2023-07-17T07:20:06.491Z,3.53
2023-07-17T07:22:34.298Z,3.60
2023-07-17T07:25:01.754Z,4.32
2023-07-17T07:27:32.490Z,3.30
2023-07-17T07:30:00.075Z,2.85
2023-07-17T07:32:27.577Z,2.88
2023-07-17T07:34:55.033Z,3.20
2023-07-17T07:37:22.199Z,3.00
2023-07-17T07:39:49.453Z,3.17
2023-07-17T07:42:18.112Z,2.75
2023-07-17T07:44:45.667Z,2.80
2023-07-17T07:47:13.005Z,2.88
2023-07-17T07:49:40.268Z,2.50
2023-07-17T07:52:08.108Z,3.45
2023-07-17T07:54:35.895Z,3.10
2023-07-17T07:57:03.359Z,4.30
2023-07-17T07:59:30.667Z,4.18
2023-07-17T08:01:57.952Z,3.58
2023-07-17T08:04:25.308Z,3.30
2023-07-17T08:06:52.619Z,4.57
2023-07-17T08:09:19.882Z,2.58
2023-07-17T08:11:47.231Z,2.30
2023-07-17T08:14:14.764Z,3.03
2023-07-17T08:16:43.031Z,3.00
2023-07-17T08:19:13.444Z,3.30
2023-07-17T08:21:40.787Z,3.33
2023-07-17T08:24:08.277Z,2.80
2023-07-17T08:26:35.727Z,2.63
2023-07-17T08:29:04.270Z,2.28
2023-07-17T08:31:33.361Z,1.90
2023-07-17T08:34:01.464Z,2.33
2023-07-17T08:36:31.991Z,1.95
2023-07-17T08:38:59.433Z,2.10
2023-07-17T08:41:27.030Z,2.78
2023-07-17T08:43:54.427Z,2.25
2023-07-17T08:46:22.060Z,2.53
2023-07-17T08:48:50.310Z,2.40
2023-07-17T08:51:17.966Z,2.30
2023-07-17T08:53:49.908Z,2.28
2023-07-17T08:56:17.191Z,2.22
2023-07-17T08:58:44.613Z,2.55
2023-07-17T09:01:17.897Z,2.17
2023-07-17T09:03:45.780Z,2.30
2023-07-17T09:06:14.592Z,1.95
2023-07-17T09:08:42.824Z,2.22
2023-07-17T09:11:10.110Z,2.55
2023-07-17T09:13:43.529Z,1.88
2023-07-17T09:16:21.659Z,2.50
2023-07-17T09:18:50.328Z,2.05
2023-07-17T09:21:24.533Z,1.98
2023-07-17T09:23:53.469Z,2.38
2023-07-17T09:26:22.495Z,2.28
2023-07-17T09:28:59.111Z,2.00
2023-07-17T09:31:30.780Z,2.25
2023-07-17T09:34:00.479Z,2.20
2023-07-17T09:36:28.375Z,1.95
2023-07-17T09:38:57.006Z,1.77
2023-07-17T09:41:28.428Z,2.30
2023-07-17T09:44:09.166Z,2.50
2023-07-17T09:46:38.464Z,1.83
2023-07-17T09:49:07.849Z,2.33
2023-07-17T09:51:36.189Z,2.03
2023-07-17T09:54:04.039Z,2.33
2023-07-17T09:56:32.822Z,2.20
2023-07-17T09:59:15.634Z,2.83
2023-07-17T10:01:49.134Z,2.20
2023-07-17T10:04:18.087Z,2.03
2023-07-17T10:06:47.792Z,1.92
2023-07-17T10:09:15.630Z,2.20
2023-07-17T10:11:43.263Z,2.30
2023-07-17T10:14:10.563Z,2.30
2023-07-17T10:16:37.859Z,2.42
2023-07-17T10:19:05.664Z,2.45
2023-07-17T10:21:33.448Z,2.22
2023-07-17T10:24:04.308Z,2.45
2023-07-17T10:26:32.061Z,2.40
2023-07-17T10:29:04.775Z,2.58
2023-07-17T10:31:33.205Z,2.40
2023-07-17T10:34:05.788Z,2.40
2023-07-17T10:36:47.512Z,2.15
2023-07-17T10:39:27.250Z,2.60
2023-07-17T10:41:54.459Z,2.90
2023-07-17T10:44:21.952Z,2.50
2023-07-17T10:46:50.092Z,3.20
2023-07-17T10:49:18.797Z,2.45
2023-07-17T10:51:50.148Z,2.60
2023-07-17T10:54:18.076Z,2.40
2023-07-17T10:56:47.753Z,2.70
2023-07-17T10:59:15.858Z,1.90
2023-07-17T11:01:44.773Z,2.20
2023-07-17T11:04:12.262Z,2.30
2023-07-17T11:07:08.762Z,2.70
2023-07-17T11:09:37.671Z,2.35
2023-07-17T11:12:07.373Z,2.20
2023-07-17T11:14:34.623Z,2.50
2023-07-17T11:17:02.094Z,2.72
2023-07-17T11:19:30.105Z,2.38
2023-07-17T11:21:57.425Z,2.40
2023-07-17T11:24:25.535Z,2.20
2023-07-17T11:26:55.332Z,2.50
2023-07-17T11:29:23.154Z,2.30
2023-07-17T11:32:01.056Z,2.30
2023-07-17T11:34:28.482Z,2.60
2023-07-17T11:36:55.873Z,2.60
2023-07-17T11:39:23.755Z,2.88
2023-07-17T11:41:55.744Z,2.50
2023-07-17T11:44:24.839Z,2.40
2023-07-17T11:46:59.781Z,2.40
2023-07-17T11:49:27.978Z,2.60
2023-07-17T11:51:56.467Z,2.30
2023-07-17T11:54:31.143Z,2.30
2023-07-17T11:57:00.549Z,3.35
2023-07-17T11:59:28.064Z,2.50
2023-07-17T12:01:55.587Z,2.50
2023-07-17T12:04:27.315Z,2.30
2023-07-17T12:06:55.222Z,2.13
2023-07-17T12:09:23.458Z,2.40
2023-07-17T12:11:51.085Z,2.53
2023-07-17T12:14:19.882Z,2.40
2023-07-17T12:16:47.872Z,2.33
2023-07-17T12:19:15.480Z,2.67
2023-07-17T12:21:43.398Z,2.53
2023-07-17T12:24:13.446Z,3.20
2023-07-17T12:26:44.775Z,3.80
2023-07-17T12:29:12.338Z,7.25
2023-07-17T12:31:39.812Z,2.20
2023-07-17T12:34:08.415Z,2.45
2023-07-17T12:36:35.991Z,2.72
2023-07-17T12:39:15.896Z,2.70
2023-07-17T12:41:44.635Z,2.80
2023-07-17T12:44:12.492Z,2.40
2023-07-17T12:46:39.840Z,2.50
2023-07-17T12:49:07.364Z,2.70
2023-07-17T12:51:35.617Z,2.53
2023-07-17T12:54:03.073Z,2.25
2023-07-17T12:56:30.741Z,2.20
2023-07-17T12:58:58.446Z,1.90
2023-07-17T13:01:25.999Z,2.60
2023-07-17T13:03:53.613Z,2.92
2023-07-17T13:06:21.748Z,2.63
2023-07-17T13:08:49.842Z,3.30
2023-07-17T13:11:18.425Z,2.50
2023-07-17T13:13:45.999Z,2.72
2023-07-17T13:16:13.828Z,3.22
2023-07-17T13:18:42.203Z,2.58
2023-07-17T13:21:12.215Z,2.72
2023-07-17T13:23:39.701Z,2.90
2023-07-17T13:26:07.598Z,2.72
2023-07-17T13:28:36.017Z,2.75
2023-07-17T13:31:09.855Z,2.72
2023-07-17T13:33:39.774Z,2.55
2023-07-17T13:36:07.588Z,2.40
2023-07-17T13:38:35.458Z,2.60
2023-07-17T13:41:02.851Z,2.30
2023-07-17T13:43:30.385Z,2.78
2023-07-17T13:45:59.143Z,2.83
2023-07-17T13:48:26.748Z,2.42
2023-07-17T13:50:54.244Z,3.20
2023-07-17T13:53:22.122Z,3.95
2023-07-17T13:55:49.871Z,2.65
2023-07-17T13:58:17.208Z,2.70
2023-07-17T14:00:45.154Z,2.50
2023-07-17T14:03:15.394Z,3.00
2023-07-17T14:05:44.599Z,2.60
2023-07-17T14:08:12.088Z,2.40
2023-07-17T14:10:40.038Z,2.40
2023-07-17T14:13:07.463Z,2.78
2023-07-17T14:15:36.081Z,2.30
2023-07-17T14:18:05.139Z,2.50
2023-07-17T14:20:34.307Z,2.65
2023-07-17T14:23:02.091Z,2.55
2023-07-17T14:25:29.794Z,3.03
2023-07-17T14:27:57.322Z,4.90
2023-07-17T14:30:24.644Z,2.90
2023-07-17T14:32:53.267Z,2.80
2023-07-17T14:35:20.918Z,2.50
2023-07-17T14:37:48.382Z,2.50
2023-07-17T14:40:15.824Z,2.20
2023-07-17T14:42:43.270Z,3.00
2023-07-17T14:45:11.033Z,2.70
2023-07-17T14:47:38.611Z,2.78
2023-07-17T14:50:07.618Z,2.47
2023-07-17T14:52:35.307Z,2.55
2023-07-17T14:55:03.009Z,2.70
2023-07-17T14:57:30.730Z,2.78
2023-07-17T14:59:58.737Z,3.25
2023-07-17T15:02:26.233Z,3.40
2023-07-17T15:04:53.549Z,3.97
2023-07-17T15:07:20.831Z,3.88
2023-07-17T15:09:48.159Z,3.47
2023-07-17T15:12:15.852Z,3.65
2023-07-17T15:14:43.391Z,6.50
2023-07-17T15:17:11.112Z,4.43
2023-07-17T15:19:42.113Z,4.40
2023-07-17T15:22:10.177Z,3.90
2023-07-17T15:24:39.060Z,2.80
2023-07-17T15:27:06.360Z,3.05
2023-07-17T15:29:34.550Z,2.88
2023-07-17T15:32:02.105Z,2.53
2023-07-17T15:34:29.941Z,2.75
2023-07-17T15:36:57.897Z,2.83
2023-07-17T15:39:25.297Z,3.03
2023-07-17T15:41:52.648Z,3.22
2023-07-17T15:44:19.876Z,2.75
2023-07-17T15:46:47.731Z,3.40
2023-07-17T15:49:15.338Z,3.10
2023-07-17T15:51:42.749Z,4.03
2023-07-17T15:54:11.368Z,3.40
2023-07-17T15:56:39.136Z,2.80
2023-07-17T15:59:06.594Z,3.42
2023-07-17T16:01:35.018Z,3.25
2023-07-17T16:04:02.615Z,3.15
2023-07-17T16:06:30.115Z,3.22
2023-07-17T16:08:57.879Z,3.03
2023-07-17T16:11:25.273Z,3.03
2023-07-17T16:13:52.813Z,2.95
2023-07-17T16:16:22.109Z,3.08
2023-07-17T16:18:49.867Z,3.08
2023-07-17T16:21:17.091Z,2.85
2023-07-17T16:23:44.650Z,2.70
2023-07-17T16:26:11.918Z,2.80
2023-07-17T16:28:39.747Z,2.60
2023-07-17T16:31:07.382Z,3.00
2023-07-17T16:33:34.834Z,2.70
2023-07-17T16:36:02.339Z,2.60
2023-07-17T16:38:30.298Z,2.42
2023-07-17T16:40:58.045Z,3.10
2023-07-17T16:43:25.303Z,2.80
2023-07-17T16:45:54.575Z,3.00
2023-07-17T16:48:21.810Z,2.95
2023-07-17T16:50:49.621Z,3.50
2023-07-17T16:53:17.190Z,3.13
2023-07-17T16:55:44.699Z,2.78
2023-07-17T16:58:14.462Z,2.38
2023-07-17T17:00:42.819Z,2.95
2023-07-17T17:03:10.097Z,2.75
2023-07-17T17:05:40.294Z,4.10
2023-07-17T17:08:08.469Z,2.78
2023-07-17T17:10:37.752Z,2.97
2023-07-17T17:13:05.293Z,2.88
2023-07-17T17:15:32.816Z,3.13
2023-07-17T17:18:01.028Z,2.92
2023-07-17T17:20:28.846Z,2.90
2023-07-17T17:22:56.693Z,3.10
2023-07-17T17:25:24.059Z,3.25
2023-07-17T17:27:51.796Z,3.53
2023-07-17T17:30:21.041Z,3.67
2023-07-17T17:32:48.486Z,3.40
2023-07-17T17:35:16.376Z,3.95
2023-07-17T17:37:44.834Z,4.28
2023-07-17T17:40:13.255Z,4.20
2023-07-17T17:42:40.589Z,4.75
2023-07-17T17:45:11.085Z,4.75
2023-07-17T17:47:42.117Z,4.40
2023-07-17T17:50:10.455Z,4.72
2023-07-17T17:52:37.727Z,5.10
2023-07-17T17:55:05.327Z,5.13
2023-07-17T17:57:32.706Z,4.05
2023-07-17T17:59:59.999Z,4.22
2023-07-17T18:02:28.014Z,4.75
2023-07-17T18:04:55.554Z,3.72
2023-07-17T18:07:23.040Z,3.47
2023-07-17T18:09:54.175Z,3.53
2023-07-17T18:12:21.419Z,3.90
2023-07-17T18:14:48.872Z,3.78
2023-07-17T18:17:16.257Z,3.83
2023-07-17T18:19:43.450Z,3.75
2023-07-17T18:22:10.753Z,3.35
2023-07-17T18:24:38.955Z,4.00
2023-07-17T18:27:07.011Z,3.60
2023-07-17T18:29:35.114Z,4.18
2023-07-17T18:32:02.720Z,4.72
2023-07-17T18:34:33.410Z,4.05
2023-07-17T18:37:00.957Z,4.60
2023-07-17T18:39:29.151Z,4.10
2023-07-17T18:41:57.633Z,4.35
2023-07-17T18:44:25.332Z,4.05
2023-07-17T18:46:52.743Z,4.10
2023-07-17T18:49:21.311Z,4.40
2023-07-17T18:51:49.075Z,5.07
2023-07-17T18:54:16.503Z,5.47
2023-07-17T18:56:44.244Z,6.07
2023-07-17T18:59:19.036Z,6.30
2023-07-17T19:01:47.116Z,7.13
2023-07-17T19:04:14.499Z,7.15
2023-07-17T19:06:42.634Z,8.00
2023-07-17T19:09:10.524Z,9.25
2023-07-17T19:11:37.992Z,10.07
2023-07-17T19:14:05.442Z,10.38
2023-07-17T19:16:33.657Z,10.52
2023-07-17T19:19:01.326Z,10.90
2023-07-17T19:21:29.088Z,10.73
2023-07-17T19:23:57.964Z,9.57
2023-07-17T19:26:27.086Z,9.77
2023-07-17T19:28:54.907Z,9.95
2023-07-17T19:31:27.601Z,9.15
2023-07-17T19:33:55.888Z,9.35
2023-07-17T19:36:23.900Z,9.20
2023-07-17T19:38:51.594Z,8.63
2023-07-17T19:41:19.761Z,8.00
2023-07-17T19:43:48.927Z,7.78
2023-07-17T19:46:18.126Z,7.07
2023-07-17T19:48:45.772Z,7.28
2023-07-17T19:51:13.029Z,7.00
2023-07-17T19:53:41.276Z,7.65
2023-07-17T19:56:08.575Z,6.18
2023-07-17T19:58:35.898Z,6.20
2023-07-17T20:01:03.823Z,6.55
2023-07-17T20:03:31.927Z,6.60
2023-07-17T20:05:59.787Z,6.03
2023-07-17T20:08:27.073Z,6.28
2023-07-17T20:10:54.510Z,6.57
2023-07-17T20:13:22.915Z,6.15
2023-07-17T20:15:50.377Z,6.38
2023-07-17T20:18:17.586Z,6.95
2023-07-17T20:20:45.174Z,6.90
2023-07-17T20:23:12.502Z,6.80
2023-07-17T20:25:41.024Z,7.10
2023-07-17T20:28:09.191Z,7.63
2023-07-17T20:30:36.898Z,7.03
2023-07-17T20:33:04.209Z,7.25
2023-07-17T20:35:31.786Z,7.95
2023-07-17T20:38:00.436Z,6.75
2023-07-17T20:40:28.194Z,6.43
2023-07-17T20:42:57.548Z,6.00
2023-07-17T20:45:33.794Z,5.85
2023-07-17T20:48:02.185Z,5.53
2023-07-17T20:50:29.805Z,5.43
2023-07-17T20:52:58.150Z,4.82
2023-07-17T20:55:25.435Z,4.68
2023-07-17T20:57:52.613Z,4.65
2023-07-17T21:00:19.885Z,4.60
2023-07-17T21:02:47.486Z,4.40
2023-07-17T21:05:23.073Z,4.03
2023-07-17T21:10:19.294Z,3.70
2023-07-17T21:12:47.655Z,4.32
2023-07-17T21:15:15.097Z,3.90
2023-07-17T21:17:45.265Z,3.53
2023-07-17T21:20:14.145Z,4.05
2023-07-17T21:22:43.147Z,3.72
2023-07-17T21:25:11.154Z,3.97
2023-07-17T21:27:38.600Z,3.78
2023-07-17T21:30:06.775Z,3.75
2023-07-17T21:32:34.458Z,3.60
2023-07-17T21:35:01.722Z,3.72
2023-07-17T21:37:29.041Z,3.88
2023-07-17T21:39:56.319Z,3.42
2023-07-17T21:42:24.284Z,3.65
2023-07-17T21:44:51.834Z,3.25
2023-07-17T21:47:19.210Z,3.70
2023-07-17T21:49:49.373Z,3.17
2023-07-17T21:52:17.323Z,3.30
2023-07-17T21:54:44.628Z,3.40
2023-07-17T21:57:12.916Z,3.45
2023-07-17T21:59:43.330Z,3.70
2023-07-17T22:02:10.576Z,3.60
2023-07-17T22:04:37.876Z,3.20
2023-07-17T22:07:05.929Z,3.20
2023-07-17T22:09:33.462Z,3.53
2023-07-17T22:12:00.706Z,3.38
2023-07-17T22:14:29.890Z,3.70
2023-07-17T22:16:58.954Z,3.08
2023-07-17T22:19:26.306Z,3.20
2023-07-17T22:21:53.500Z,3.33
2023-07-17T22:24:20.803Z,3.33
2023-07-17T22:26:49.649Z,3.25
2023-07-17T22:29:17.197Z,2.80
2023-07-17T22:31:44.692Z,3.10
2023-07-17T22:34:13.129Z,2.60
2023-07-17T22:36:40.922Z,2.72
2023-07-17T22:39:08.313Z,2.90
2023-07-17T22:41:36.549Z,2.95
2023-07-17T22:44:04.170Z,2.88
2023-07-17T22:46:31.430Z,3.10
2023-07-17T22:48:59.494Z,2.70
2023-07-17T22:51:27.026Z,2.78
2023-07-17T22:53:54.334Z,2.75
2023-07-17T22:56:21.915Z,2.72
2023-07-17T22:58:49.319Z,2.45
2023-07-17T23:01:17.217Z,2.63
2023-07-17T23:03:44.703Z,2.30
2023-07-17T23:06:12.008Z,2.88
2023-07-17T23:08:39.218Z,2.70
2023-07-17T23:11:06.640Z,2.40
2023-07-17T23:13:34.079Z,2.55
2023-07-17T23:16:01.379Z,2.72
2023-07-17T23:18:29.497Z,2.35
2023-07-17T23:20:57.431Z,2.40
2023-07-17T23:23:25.244Z,2.83
2023-07-17T23:25:52.567Z,2.67
2023-07-17T23:28:19.855Z,2.38
2023-07-17T23:30:48.142Z,2.38
2023-07-17T23:33:15.663Z,2.60
2023-07-17T23:35:43.657Z,2.72
2023-07-17T23:38:10.952Z,2.47
2023-07-17T23:40:38.546Z,2.45
2023-07-17T23:43:06.372Z,2.80
2023-07-17T23:45:34.897Z,2.67
2023-07-17T23:48:02.152Z,2.58
2023-07-17T23:50:30.119Z,2.38
2023-07-17T23:52:57.549Z,2.25
2023-07-17T23:55:24.984Z,2.70
2023-07-17T23:57:52.856Z,2.50
